createdAt,value
2022-11-05T00:01:29.757Z,2.70
2022-11-05T00:04:49.937Z,2.70
2022-11-05T00:08:11.605Z,2.53
2022-11-05T00:11:17.911Z,2.45
2022-11-05T00:17:40.663Z,2.70
2022-11-05T00:20:42.479Z,3.13
2022-11-05T00:24:10.166Z,2.70
2022-11-05T00:27:11.853Z,2.83
2022-11-05T00:30:25.395Z,2.90
2022-11-05T00:33:27.375Z,2.80
2022-11-05T00:36:28.950Z,3.30
2022-11-05T00:39:30.578Z,2.67
2022-11-05T00:42:50.763Z,2.83
2022-11-05T00:45:52.388Z,2.83
2022-11-05T00:49:12.664Z,2.80
2022-11-05T00:52:32.958Z,2.75
2022-11-05T00:55:38.365Z,2.63
2022-11-05T00:58:40.115Z,2.65
2022-11-05T01:01:41.831Z,2.40
2022-11-05T01:04:43.715Z,2.53
2022-11-05T01:07:45.682Z,2.97
2022-11-05T01:10:51.719Z,2.53
2022-11-05T01:13:53.345Z,2.50
2022-11-05T01:16:54.915Z,2.50
2022-11-05T01:19:56.579Z,2.30
2022-11-05T01:22:58.649Z,2.72
2022-11-05T01:26:00.265Z,2.30
2022-11-05T01:29:02.143Z,2.42
2022-11-05T01:32:04.151Z,2.75
2022-11-05T01:35:08.847Z,2.15
2022-11-05T01:38:10.545Z,2.15
2022-11-05T01:41:12.359Z,2.50
2022-11-05T01:44:51.481Z,2.17
2022-11-05T01:48:12.882Z,2.30
2022-11-05T01:51:18.364Z,2.60
2022-11-05T01:54:24.891Z,2.70
2022-11-05T02:00:29.027Z,2.38
2022-11-05T02:03:31.624Z,2.20
2022-11-05T02:06:37.126Z,2.60
2022-11-05T02:10:02.406Z,2.80
2022-11-05T02:13:04.052Z,2.80
2022-11-05T02:16:39.938Z,2.47
2022-11-05T02:20:14.719Z,2.50
2022-11-05T02:23:43.936Z,2.70
2022-11-05T02:26:57.666Z,2.40
2022-11-05T02:30:33.441Z,2.50
2022-11-05T02:33:57.053Z,2.30
2022-11-05T02:37:09.861Z,2.55
2022-11-05T02:40:34.106Z,2.72
2022-11-05T02:43:48.043Z,2.60
2022-11-05T02:47:02.878Z,2.35
2022-11-05T02:50:25.245Z,2.30
2022-11-05T02:53:51.569Z,2.40
2022-11-05T02:56:55.569Z,2.30
2022-11-05T03:00:27.837Z,2.70
2022-11-05T03:03:57.861Z,2.38
2022-11-05T03:07:20.869Z,2.67
2022-11-05T03:10:42.267Z,2.80
2022-11-05T03:14:02.709Z,2.63
2022-11-05T03:17:32.495Z,2.40
2022-11-05T03:21:06.044Z,2.20
2022-11-05T03:24:16.752Z,2.72
2022-11-05T03:27:29.848Z,2.60
2022-11-05T03:30:35.524Z,2.45
2022-11-05T03:33:39.276Z,2.60
2022-11-05T03:36:46.012Z,2.33
2022-11-05T03:39:52.145Z,2.33
2022-11-05T03:42:58.123Z,2.40
2022-11-05T03:46:05.288Z,2.20
2022-11-05T03:49:09.735Z,2.47
2022-11-05T03:52:17.421Z,2.55
2022-11-05T03:55:26.337Z,2.60
2022-11-05T03:58:29.905Z,2.50
2022-11-05T04:01:32.272Z,2.42
2022-11-05T04:04:34.323Z,2.88
2022-11-05T04:07:54.579Z,2.38
2022-11-05T04:11:15.053Z,2.40
2022-11-05T04:14:16.735Z,2.30
2022-11-05T04:17:18.366Z,2.15
2022-11-05T04:20:38.566Z,2.00
2022-11-05T04:23:58.966Z,2.25
2022-11-05T04:27:00.691Z,2.10
2022-11-05T04:30:21.855Z,2.10
2022-11-05T04:33:23.581Z,3.10
2022-11-05T04:36:25.243Z,3.20
2022-11-05T04:39:27.054Z,3.45
2022-11-05T04:42:29.358Z,3.47
2022-11-05T04:45:34.433Z,3.50
2022-11-05T04:48:37.204Z,3.65
2022-11-05T04:51:38.744Z,4.10
2022-11-05T04:54:40.381Z,3.63
2022-11-05T04:57:41.988Z,3.65
2022-11-05T05:00:43.822Z,3.65
2022-11-05T05:03:50.029Z,4.07
2022-11-05T05:06:51.651Z,4.60
2022-11-05T05:09:54.944Z,4.00
2022-11-05T05:12:56.922Z,4.10
2022-11-05T05:15:58.907Z,4.47
2022-11-05T05:19:00.588Z,4.95
2022-11-05T05:22:02.176Z,4.80
2022-11-05T05:25:04.447Z,4.45
2022-11-05T05:28:06.128Z,4.95
2022-11-05T05:31:07.800Z,5.53
2022-11-05T05:34:14.443Z,5.30
2022-11-05T05:37:16.340Z,5.18
2022-11-05T05:40:18.017Z,5.15
2022-11-05T05:43:19.705Z,5.40
2022-11-05T05:46:21.261Z,4.90
2022-11-05T05:49:22.882Z,5.05
2022-11-05T05:52:24.609Z,4.95
2022-11-05T05:55:26.300Z,4.78
2022-11-05T07:07:22.920Z,3.95
2022-11-05T07:10:24.950Z,4.70
2022-11-05T07:13:26.948Z,4.07
2022-11-05T07:16:28.750Z,4.63
2022-11-05T07:19:30.382Z,4.35
2022-11-05T07:22:32.828Z,4.65
2022-11-05T07:25:35.136Z,4.25
2022-11-05T07:28:36.784Z,4.25
2022-11-05T07:31:38.498Z,4.43
2022-11-05T07:34:40.174Z,4.15
2022-11-05T07:37:46.570Z,4.25
2022-11-05T07:40:48.483Z,4.53
2022-11-05T07:43:50.127Z,4.88
2022-11-05T07:46:51.758Z,4.80
2022-11-05T07:49:53.468Z,5.32
2022-11-05T07:53:04.653Z,4.75
2022-11-05T07:56:06.751Z,4.80
2022-11-05T07:59:09.015Z,5.15
2022-11-05T08:02:11.497Z,5.10
2022-11-05T08:05:13.273Z,7.25
2022-11-05T08:08:17.191Z,6.50
2022-11-05T08:11:19.078Z,5.65
2022-11-05T08:14:20.682Z,5.40
2022-11-05T08:17:22.461Z,6.57
2022-11-05T08:20:24.056Z,6.55
2022-11-05T08:23:27.109Z,5.40
2022-11-05T08:26:28.755Z,5.88
2022-11-05T08:29:30.576Z,6.93
2022-11-05T08:32:32.322Z,6.85
2022-11-05T08:35:36.483Z,6.90
2022-11-05T08:38:38.311Z,9.45
2022-11-05T08:41:40.657Z,7.07
2022-11-05T08:44:42.300Z,6.90
2022-11-05T08:47:43.994Z,7.53
2022-11-05T08:50:48.369Z,7.80
2022-11-05T08:53:50.071Z,6.97
2022-11-05T08:56:51.769Z,7.38
2022-11-05T08:59:53.372Z,7.25
2022-11-05T09:02:55.531Z,6.63
2022-11-05T09:05:57.113Z,7.97
2022-11-05T09:08:58.737Z,8.38
2022-11-05T09:12:15.641Z,8.50
2022-11-05T09:18:20.380Z,7.53
2022-11-05T09:21:21.970Z,7.30
2022-11-05T09:24:23.592Z,7.28
2022-11-05T09:27:25.478Z,9.15
2022-11-05T09:30:27.207Z,7.63
2022-11-05T09:33:28.967Z,7.28
2022-11-05T09:36:30.526Z,7.85
2022-11-05T09:39:32.224Z,8.65
2022-11-05T09:42:43.167Z,6.35
2022-11-05T09:45:49.575Z,10.15
2022-11-05T09:49:04.244Z,6.93
2022-11-05T09:52:13.038Z,7.10
2022-11-05T09:55:21.334Z,6.80
2022-11-05T09:58:43.148Z,7.70
2022-11-05T10:01:45.693Z,5.68
2022-11-05T10:04:51.421Z,7.47
2022-11-05T10:08:02.298Z,5.97
2022-11-05T10:11:10.489Z,5.38
2022-11-05T10:17:51.364Z,5.57
2022-11-05T10:20:53.012Z,4.80
2022-11-05T10:23:55.101Z,6.13
2022-11-05T10:26:57.603Z,5.70
2022-11-05T10:30:00.134Z,5.78
2022-11-05T10:33:05.125Z,5.78
2022-11-05T10:36:12.447Z,5.43
2022-11-05T10:39:18.962Z,5.32
2022-11-05T10:45:47.278Z,4.65
2022-11-05T10:48:57.973Z,4.43
2022-11-05T10:52:12.148Z,4.50
2022-11-05T10:55:20.956Z,5.13
2022-11-05T10:58:29.023Z,5.10
2022-11-05T11:01:31.672Z,5.38
2022-11-05T11:04:37.671Z,5.35
2022-11-05T11:07:40.797Z,5.35
2022-11-05T11:10:52.122Z,7.95
2022-11-05T11:13:56.824Z,4.88
2022-11-05T11:17:17.995Z,5.25
2022-11-05T11:20:31.298Z,4.93
2022-11-05T11:23:41.129Z,5.80
2022-11-05T11:26:42.712Z,5.07
2022-11-05T11:29:54.549Z,4.10
2022-11-05T11:33:06.986Z,4.72
2022-11-05T11:36:11.134Z,4.57
2022-11-05T11:39:22.188Z,4.28
2022-11-05T11:42:30.913Z,4.40
2022-11-05T11:45:46.846Z,4.88
2022-11-05T11:48:49.899Z,4.80
2022-11-05T11:51:59.706Z,4.95
2022-11-05T11:55:27.873Z,4.38
2022-11-05T11:58:52.405Z,4.72
2022-11-05T12:02:33.220Z,4.70
2022-11-05T12:05:43.692Z,4.63
2022-11-05T12:09:11.626Z,4.15
2022-11-05T12:12:15.419Z,3.70
2022-11-05T12:15:42.002Z,4.38
2022-11-05T12:18:52.510Z,4.35
2022-11-05T12:22:04.911Z,3.92
2022-11-05T12:25:12.952Z,3.65
2022-11-05T12:28:29.948Z,4.10
2022-11-05T12:32:07.965Z,4.28
2022-11-05T12:35:27.882Z,4.40
2022-11-05T12:38:44.201Z,4.15
2022-11-05T12:41:51.553Z,4.65
2022-11-05T12:45:15.731Z,4.97
2022-11-05T12:48:40.582Z,4.10
2022-11-05T12:51:56.420Z,3.90
2022-11-05T12:55:33.651Z,4.20
2022-11-05T12:58:40.230Z,4.57
2022-11-05T13:01:46.066Z,4.13
2022-11-05T13:04:56.196Z,4.55
2022-11-05T13:08:05.442Z,4.20
2022-11-05T13:11:17.069Z,4.80
2022-11-05T13:14:27.261Z,4.38
2022-11-05T13:17:34.678Z,6.20
2022-11-05T13:20:40.175Z,4.88
2022-11-05T13:23:48.790Z,3.87
2022-11-05T13:27:18.605Z,3.60
2022-11-05T13:30:26.367Z,3.90
2022-11-05T13:33:41.038Z,3.50
2022-11-05T13:37:18.642Z,3.05
2022-11-05T13:40:25.578Z,4.95
2022-11-05T13:44:02.855Z,10.40
2022-11-05T13:47:13.526Z,4.70
2022-11-05T13:50:44.143Z,5.35
2022-11-05T13:54:02.836Z,5.82
2022-11-05T13:57:34.451Z,3.85
2022-11-05T14:00:47.899Z,3.40
2022-11-05T14:03:52.385Z,3.50
2022-11-05T14:07:05.252Z,3.28
2022-11-05T14:10:42.061Z,3.75
2022-11-05T14:13:45.961Z,3.17
2022-11-05T14:16:53.734Z,2.90
2022-11-05T14:20:04.577Z,2.85
2022-11-05T14:23:23.095Z,2.90
2022-11-05T14:26:30.212Z,2.90
2022-11-05T14:29:49.574Z,3.00
2022-11-05T14:32:53.133Z,3.00
2022-11-05T14:36:20.451Z,2.78
2022-11-05T14:42:31.307Z,2.80
2022-11-05T14:45:35.554Z,2.88
2022-11-05T14:48:42.031Z,2.90
2022-11-05T14:54:56.354Z,2.80
2022-11-05T14:57:57.911Z,3.25
2022-11-05T15:01:01.653Z,3.15
2022-11-05T15:04:26.888Z,3.10
2022-11-05T15:07:37.579Z,4.05
2022-11-05T15:10:40.490Z,3.17
2022-11-05T15:14:06.241Z,3.10
2022-11-05T15:17:22.840Z,3.22
2022-11-05T15:20:35.840Z,3.55
2022-11-05T15:23:45.691Z,7.25
2022-11-05T15:26:56.483Z,6.40
2022-11-05T15:30:04.997Z,7.90
2022-11-05T15:33:25.123Z,7.25
2022-11-05T15:36:29.465Z,13.80
2022-11-05T15:39:32.610Z,6.18
2022-11-05T15:42:34.341Z,7.15
2022-11-05T15:45:47.092Z,4.43
2022-11-05T15:49:05.065Z,4.22
2022-11-05T15:52:09.157Z,4.00
2022-11-05T15:55:13.806Z,4.13
2022-11-05T15:58:15.744Z,4.72
2022-11-05T16:01:34.467Z,6.75
2022-11-05T16:04:36.294Z,4.63
2022-11-05T16:07:42.458Z,4.85
2022-11-05T16:10:48.854Z,6.82
2022-11-05T16:13:51.674Z,4.05
2022-11-05T16:16:53.419Z,10.05
2022-11-05T16:19:55.682Z,17.15
2022-11-05T16:23:00.312Z,6.88
2022-11-05T16:26:02.045Z,5.55
2022-11-05T16:29:10.883Z,5.35
2022-11-05T16:32:26.891Z,5.70
2022-11-05T16:35:31.936Z,5.03
2022-11-05T16:38:33.923Z,5.38
2022-11-05T16:41:42.928Z,4.88
2022-11-05T16:44:45.001Z,4.90
2022-11-05T16:47:47.416Z,4.88
2022-11-05T16:50:49.234Z,5.10
2022-11-05T16:53:51.230Z,4.72
2022-11-05T16:56:53.184Z,4.43
2022-11-05T16:59:57.010Z,4.65
2022-11-05T17:02:58.868Z,4.95
2022-11-05T17:06:00.605Z,4.90
2022-11-05T17:09:02.429Z,4.63
2022-11-05T17:12:04.657Z,4.63
2022-11-05T17:15:35.659Z,4.90
2022-11-05T17:18:38.440Z,4.88
2022-11-05T17:21:40.115Z,4.93
2022-11-05T17:24:42.154Z,5.57
2022-11-05T17:27:44.077Z,6.72
2022-11-05T17:30:52.261Z,5.88
2022-11-05T17:33:58.509Z,5.10
2022-11-05T17:37:00.346Z,5.30
2022-11-05T17:40:03.883Z,4.63
2022-11-05T17:43:06.067Z,6.50
2022-11-05T17:46:10.355Z,4.70
2022-11-05T17:49:12.132Z,4.15
2022-11-05T17:52:13.904Z,4.22
2022-11-05T17:55:18.482Z,4.30
2022-11-05T17:58:20.198Z,4.68
2022-11-05T18:01:31.495Z,4.28
2022-11-05T18:04:33.812Z,4.35
2022-11-05T18:07:35.543Z,4.43
2022-11-05T18:10:38.323Z,3.92
2022-11-05T18:13:40.359Z,4.00
2022-11-05T18:16:42.283Z,4.10
2022-11-05T18:19:43.966Z,4.50
2022-11-05T18:22:46.331Z,4.50
2022-11-05T18:25:48.053Z,4.30
2022-11-05T18:28:49.918Z,3.80
2022-11-05T18:31:51.847Z,3.65
2022-11-05T18:34:53.730Z,4.30
2022-11-05T18:37:55.429Z,4.25
2022-11-05T18:40:56.988Z,4.25
2022-11-05T18:44:04.736Z,4.10
2022-11-05T18:47:07.057Z,4.30
2022-11-05T18:50:10.628Z,4.45
2022-11-05T18:53:12.639Z,4.68
2022-11-05T18:56:16.054Z,4.63
2022-11-05T19:02:40.843Z,4.60
2022-11-05T19:05:43.042Z,4.18
2022-11-05T19:08:45.061Z,4.25
2022-11-05T19:11:46.903Z,4.20
2022-11-05T19:14:48.605Z,4.68
2022-11-05T19:17:50.287Z,4.50
2022-11-05T19:20:52.257Z,4.10
2022-11-05T19:23:56.374Z,3.55
2022-11-05T19:26:57.957Z,3.80
2022-11-05T19:29:59.590Z,3.90
2022-11-05T19:33:01.418Z,3.72
2022-11-05T19:36:07.393Z,3.38
2022-11-05T19:39:12.134Z,4.10
2022-11-05T19:42:13.787Z,4.47
2022-11-05T19:45:42.837Z,4.78
2022-11-05T19:48:37.801Z,4.38
2022-11-05T19:51:40.129Z,4.60
2022-11-05T19:54:41.967Z,4.35
2022-11-05T19:57:44.953Z,4.25
2022-11-05T20:00:46.548Z,3.88
2022-11-05T20:03:48.559Z,4.70
2022-11-05T20:06:50.358Z,4.60
2022-11-05T20:09:52.020Z,4.13
2022-11-05T20:12:53.629Z,4.82
2022-11-05T20:15:55.641Z,4.70
2022-11-05T20:18:57.718Z,4.75
2022-11-05T20:22:00.854Z,4.63
2022-11-05T20:25:02.660Z,3.80
2022-11-05T20:28:05.724Z,4.40
2022-11-05T20:31:16.065Z,4.20
2022-11-05T20:34:17.860Z,3.83
2022-11-05T20:37:19.563Z,3.63
2022-11-05T20:40:21.718Z,4.05
2022-11-05T20:43:27.565Z,3.85
2022-11-05T20:46:32.909Z,4.10
2022-11-05T20:49:34.828Z,3.45
2022-11-05T20:52:36.800Z,3.50
2022-11-05T20:55:46.628Z,3.00
2022-11-05T20:58:48.946Z,3.22
2022-11-05T21:01:51.934Z,3.75
2022-11-05T21:04:53.848Z,3.33
2022-11-05T21:07:55.642Z,3.40
2022-11-05T21:10:57.673Z,3.40
2022-11-05T21:13:59.289Z,3.13
2022-11-05T21:17:01.001Z,3.53
2022-11-05T21:20:02.663Z,3.72
2022-11-05T21:23:04.302Z,3.42
2022-11-05T21:26:07.763Z,3.63
2022-11-05T21:29:09.447Z,3.67
2022-11-05T21:32:11.733Z,3.63
2022-11-05T21:35:13.285Z,3.40
2022-11-05T21:38:17.032Z,3.25
2022-11-05T21:41:18.773Z,3.35
2022-11-05T21:44:20.554Z,3.20
2022-11-05T21:47:22.244Z,3.50
2022-11-05T21:50:42.604Z,3.40
2022-11-05T21:54:02.791Z,3.33
2022-11-05T21:57:23.207Z,3.30
2022-11-05T22:00:25.154Z,3.45
2022-11-05T22:03:26.904Z,3.92
2022-11-05T22:06:28.494Z,3.72
2022-11-05T22:09:30.258Z,3.58
2022-11-05T22:12:32.385Z,3.88
2022-11-05T22:15:33.970Z,4.13
2022-11-05T22:18:35.648Z,3.95
2022-11-05T22:21:37.284Z,4.22
2022-11-05T22:24:40.033Z,3.90
2022-11-05T22:27:42.051Z,3.40
2022-11-05T22:30:43.807Z,2.92
2022-11-05T22:33:45.611Z,3.40
2022-11-05T22:36:47.283Z,3.05
2022-11-05T22:39:48.898Z,3.13
2022-11-05T22:42:50.502Z,3.38
2022-11-05T22:45:52.138Z,3.25
2022-11-05T22:48:54.174Z,3.40
2022-11-05T22:51:55.808Z,3.30
2022-11-05T22:54:57.505Z,3.30
2022-11-05T22:57:59.116Z,3.08
2022-11-05T23:01:01.275Z,3.10
2022-11-05T23:04:03.103Z,2.63
2022-11-05T23:07:27.641Z,3.22
2022-11-05T23:10:49.116Z,3.00
2022-11-05T23:13:50.900Z,3.03
2022-11-05T23:17:11.730Z,3.40
2022-11-05T23:20:35.519Z,3.13
2022-11-05T23:23:55.476Z,3.40
2022-11-05T23:26:58.046Z,3.22
2022-11-05T23:30:07.442Z,3.00
2022-11-05T23:33:09.068Z,3.38
2022-11-05T23:36:31.555Z,3.15
2022-11-05T23:39:36.854Z,3.47
2022-11-05T23:43:01.760Z,2.78
2022-11-05T23:46:21.981Z,2.90
2022-11-05T23:49:23.667Z,3.15
2022-11-05T23:52:25.264Z,3.53
2022-11-05T23:55:27.202Z,3.15
2022-11-05T23:58:29.163Z,2.90
